createdAt,value
2023-07-24T03:52:01.796Z,23.12
2023-07-24T03:54:29.259Z,23.22
2023-07-24T03:56:56.554Z,23.09
2023-07-24T03:59:24.257Z,23.46
2023-07-24T04:01:51.609Z,23.73
2023-07-24T04:04:19.465Z,23.54
2023-07-24T04:06:47.466Z,23.49
2023-07-24T04:09:17.636Z,23.30
2023-07-24T04:11:46.865Z,23.29
2023-07-24T04:14:14.618Z,23.40
2023-07-24T04:16:41.958Z,22.90
2023-07-24T04:19:09.849Z,22.71
2023-07-24T04:21:37.360Z,22.86
2023-07-24T04:24:05.332Z,23.40
2023-07-24T04:26:34.412Z,23.52
2023-07-24T04:29:02.936Z,23.53
2023-07-24T04:31:30.845Z,23.59
2023-07-24T04:33:58.232Z,23.75
2023-07-24T04:36:26.015Z,23.52
2023-07-24T04:38:53.818Z,23.34
2023-07-24T04:41:21.730Z,23.29
2023-07-24T04:43:49.071Z,23.28
2023-07-24T04:46:16.919Z,22.92
2023-07-24T04:48:44.716Z,23.22
2023-07-24T04:51:12.195Z,23.49
2023-07-24T04:53:40.585Z,23.56
2023-07-24T04:56:08.288Z,23.75
2023-07-24T04:58:35.674Z,23.75
2023-07-24T05:01:05.306Z,23.69
2023-07-24T05:03:33.643Z,23.77
2023-07-24T05:06:00.960Z,23.83
2023-07-24T05:08:29.323Z,23.75
2023-07-24T05:11:00.089Z,23.56
2023-07-24T05:13:27.849Z,23.44
2023-07-24T05:15:55.795Z,23.60
2023-07-24T05:18:23.435Z,23.70
2023-07-24T05:20:52.590Z,23.57
2023-07-24T05:23:20.689Z,24.04
2023-07-24T05:25:48.119Z,24.16
2023-07-24T05:28:15.480Z,23.79
2023-07-24T05:30:42.850Z,23.60
2023-07-24T05:33:10.627Z,23.91
2023-07-24T05:35:37.998Z,23.84
2023-07-24T05:38:05.866Z,23.75
2023-07-24T05:40:33.588Z,23.92
2023-07-24T05:43:00.871Z,23.97
2023-07-24T05:45:28.674Z,24.13
2023-07-24T05:47:56.060Z,24.45
2023-07-24T05:50:23.447Z,24.57
2023-07-24T05:52:50.811Z,24.76
2023-07-24T05:55:18.208Z,24.93
2023-07-24T05:57:46.531Z,24.83
2023-07-24T06:00:14.049Z,24.64
2023-07-24T06:02:43.839Z,24.60
2023-07-24T06:05:11.378Z,24.56
2023-07-24T06:07:38.667Z,24.50
2023-07-24T06:10:06.537Z,24.59
2023-07-24T06:12:33.877Z,24.90
2023-07-24T06:15:01.264Z,24.89
2023-07-24T06:17:28.605Z,25.14
2023-07-24T06:19:56.395Z,24.99
2023-07-24T06:22:24.714Z,25.13
2023-07-24T06:24:52.648Z,25.45
2023-07-24T06:27:20.068Z,25.56
2023-07-24T06:29:49.440Z,25.68
2023-07-24T06:32:18.643Z,25.77
2023-07-24T06:34:46.767Z,26.03
2023-07-24T06:37:22.323Z,26.20
2023-07-24T06:39:50.323Z,26.35
2023-07-24T06:42:18.268Z,26.18
2023-07-24T06:44:45.643Z,26.20
2023-07-24T06:47:13.003Z,26.24
2023-07-24T06:49:40.430Z,26.28
2023-07-24T06:52:08.022Z,26.30
2023-07-24T06:54:35.639Z,26.34
2023-07-24T06:57:03.572Z,26.56
2023-07-24T06:59:30.912Z,26.72
2023-07-24T07:01:58.716Z,26.44
2023-07-24T07:04:26.040Z,26.60
2023-07-24T07:06:53.789Z,26.29
2023-07-24T07:09:21.596Z,26.26
2023-07-24T07:11:48.915Z,26.49
2023-07-24T07:14:16.387Z,26.69
2023-07-24T07:16:43.751Z,26.85
2023-07-24T07:19:11.719Z,26.86
2023-07-24T07:21:39.088Z,26.84
2023-07-24T07:24:06.653Z,26.79
2023-07-24T07:26:34.353Z,26.86
2023-07-24T07:29:01.778Z,26.93
2023-07-24T07:31:30.144Z,26.95
2023-07-24T07:33:57.521Z,27.24
2023-07-24T07:36:25.204Z,27.26
2023-07-24T07:38:53.428Z,27.34
2023-07-24T07:41:20.897Z,27.39
2023-07-24T07:43:49.108Z,27.38
2023-07-24T07:46:16.803Z,27.57
2023-07-24T07:48:44.256Z,27.53
2023-07-24T07:51:11.559Z,27.71
2023-07-24T07:53:39.598Z,27.83
2023-07-24T07:56:07.215Z,27.77
2023-07-24T07:58:35.129Z,28.05
2023-07-24T08:01:06.423Z,28.15
2023-07-24T08:03:35.425Z,28.20
2023-07-24T08:06:03.401Z,28.15
2023-07-24T08:08:30.770Z,28.35
2023-07-24T08:10:58.226Z,28.17
2023-07-24T08:13:25.608Z,27.94
2023-07-24T08:15:53.307Z,28.28
2023-07-24T08:18:21.037Z,28.63
2023-07-24T08:20:48.526Z,28.89
2023-07-24T08:23:15.990Z,29.17
2023-07-24T08:25:56.955Z,29.12
2023-07-24T08:28:24.657Z,29.28
2023-07-24T08:30:59.235Z,29.27
2023-07-24T08:33:26.687Z,29.49
2023-07-24T08:36:20.374Z,29.43
2023-07-24T08:38:48.681Z,29.54
2023-07-24T08:41:16.116Z,29.64
2023-07-24T08:43:45.112Z,29.43
2023-07-24T08:46:12.685Z,29.50
2023-07-24T08:48:42.724Z,29.50
2023-07-24T08:51:15.652Z,29.53
2023-07-24T08:53:44.733Z,29.58
2023-07-24T08:56:13.844Z,29.60
2023-07-24T08:58:41.695Z,29.46
2023-07-24T09:01:11.138Z,29.46
2023-07-24T09:03:39.285Z,29.37
2023-07-24T09:06:10.830Z,29.30
2023-07-24T09:08:41.261Z,28.80
2023-07-24T09:11:10.758Z,28.63
2023-07-24T09:13:39.469Z,28.94
2023-07-24T09:16:07.664Z,29.35
2023-07-24T09:18:42.522Z,29.23
2023-07-24T09:21:13.491Z,29.56
2023-07-24T09:23:42.151Z,29.36
2023-07-24T09:26:09.647Z,29.66
2023-07-24T09:28:38.080Z,29.93
2023-07-24T09:31:06.198Z,29.90
2023-07-24T09:33:41.774Z,30.15
2023-07-24T09:36:10.294Z,30.19
2023-07-24T09:38:39.316Z,29.97
2023-07-24T09:41:07.754Z,29.40
2023-07-24T09:43:40.633Z,29.25
2023-07-24T09:46:10.392Z,28.88
2023-07-24T09:51:13.952Z,28.64
2023-07-24T09:53:53.239Z,28.60
2023-07-24T09:56:35.045Z,28.17
2023-07-24T09:59:13.458Z,28.05
2023-07-24T10:01:41.999Z,27.89
2023-07-24T10:04:11.287Z,27.73
2023-07-24T10:06:39.467Z,27.72
2023-07-24T10:09:08.686Z,27.83
2023-07-24T10:11:37.708Z,27.88
2023-07-24T10:14:06.052Z,27.99
2023-07-24T10:16:34.725Z,27.94
2023-07-24T10:19:02.631Z,27.92
2023-07-24T10:21:30.422Z,28.11
2023-07-24T10:24:01.849Z,28.34
2023-07-24T10:26:29.110Z,28.39
2023-07-24T10:28:56.375Z,28.23
2023-07-24T10:31:30.187Z,27.93
2023-07-24T10:34:06.470Z,28.01
2023-07-24T10:36:39.405Z,28.07
2023-07-24T10:39:16.097Z,27.90
2023-07-24T10:41:46.066Z,27.88
2023-07-24T10:44:13.755Z,27.57
2023-07-24T10:46:45.881Z,27.02
2023-07-24T10:49:13.904Z,27.43
2023-07-24T10:51:41.264Z,27.49
2023-07-24T10:54:09.106Z,27.46
2023-07-24T10:56:37.768Z,27.54
2023-07-24T10:59:05.888Z,27.96
2023-07-24T11:01:35.081Z,28.04
2023-07-24T11:04:03.861Z,27.69
2023-07-24T11:06:31.350Z,27.57
2023-07-24T11:09:00.591Z,27.58
2023-07-24T11:11:33.882Z,27.52
2023-07-24T11:14:04.011Z,27.81
2023-07-24T11:16:34.318Z,27.71
2023-07-24T11:19:02.599Z,27.73
2023-07-24T11:21:31.233Z,27.56
2023-07-24T11:23:59.854Z,27.83
2023-07-24T11:26:29.043Z,28.16
2023-07-24T11:28:56.841Z,28.27
2023-07-24T11:31:24.733Z,28.48
2023-07-24T11:33:54.088Z,28.78
2023-07-24T11:36:22.673Z,28.95
2023-07-24T11:38:50.742Z,28.90
2023-07-24T11:41:19.225Z,29.40
2023-07-24T11:43:48.677Z,29.81
2023-07-24T11:46:25.741Z,29.84
2023-07-24T11:48:56.741Z,30.06
2023-07-24T11:51:26.917Z,30.57
2023-07-24T11:54:07.838Z,30.75
2023-07-24T11:56:35.704Z,31.17
2023-07-24T11:59:16.667Z,31.37
2023-07-24T12:01:51.196Z,31.62
2023-07-24T12:04:19.472Z,31.80
2023-07-24T12:06:47.596Z,31.82
2023-07-24T12:09:15.334Z,31.74
2023-07-24T12:11:46.638Z,31.66
2023-07-24T12:14:15.722Z,32.26
2023-07-24T12:16:44.614Z,31.75
2023-07-24T12:19:11.995Z,32.27
2023-07-24T12:21:39.360Z,32.21
2023-07-24T12:24:06.756Z,32.43
2023-07-24T12:26:34.207Z,31.89
2023-07-24T12:29:02.090Z,31.90
2023-07-24T12:31:30.363Z,31.77
2023-07-24T12:33:58.642Z,31.56
2023-07-24T12:36:26.222Z,31.07
2023-07-24T12:38:53.763Z,31.44
2023-07-24T12:41:21.105Z,30.62
2023-07-24T12:43:48.591Z,30.11
2023-07-24T12:46:16.635Z,30.17
2023-07-24T12:48:44.053Z,29.94
2023-07-24T12:51:11.616Z,30.06
2023-07-24T12:53:41.876Z,30.34
2023-07-24T12:56:15.159Z,30.35
2023-07-24T12:58:42.888Z,30.36
2023-07-24T13:01:10.343Z,30.47
2023-07-24T13:03:37.910Z,29.73
2023-07-24T13:06:05.802Z,29.80
2023-07-24T13:08:33.978Z,29.97
2023-07-24T13:11:01.453Z,29.79
2023-07-24T13:13:29.303Z,29.63
2023-07-24T13:16:21.907Z,30.15
2023-07-24T13:18:49.325Z,29.68
2023-07-24T13:21:17.211Z,29.18
2023-07-24T13:23:44.570Z,29.86
2023-07-24T13:26:13.956Z,29.76
2023-07-24T13:28:41.914Z,29.97
2023-07-24T13:31:14.321Z,29.79
2023-07-24T13:33:42.561Z,29.69
2023-07-24T13:36:10.467Z,29.71
2023-07-24T13:38:38.086Z,29.82
2023-07-24T13:41:05.794Z,30.26
2023-07-24T13:43:33.973Z,30.43
2023-07-24T13:46:03.734Z,31.04
2023-07-24T13:48:31.251Z,31.78
2023-07-24T13:50:58.720Z,31.96
2023-07-24T13:53:27.096Z,32.15
2023-07-24T13:55:55.418Z,31.87
2023-07-24T13:58:22.864Z,32.39
2023-07-24T14:00:50.816Z,32.42
2023-07-24T14:03:20.989Z,32.26
2023-07-24T14:05:48.941Z,32.00
2023-07-24T14:08:16.719Z,32.06
2023-07-24T14:10:44.284Z,31.80
2023-07-24T14:13:11.679Z,32.55
2023-07-24T14:15:39.018Z,32.56
2023-07-24T14:18:06.655Z,32.64
2023-07-24T14:20:34.562Z,33.04
2023-07-24T14:23:01.905Z,33.64
2023-07-24T14:25:29.661Z,32.36
2023-07-24T14:27:57.119Z,31.45
2023-07-24T14:30:24.831Z,31.26
2023-07-24T14:32:52.543Z,31.02
2023-07-24T14:35:20.204Z,31.56
2023-07-24T14:37:48.097Z,31.67
2023-07-24T14:40:15.449Z,32.30
2023-07-24T14:42:43.267Z,32.94
2023-07-24T14:45:11.417Z,31.84
2023-07-24T14:47:39.746Z,31.12
2023-07-24T14:50:07.706Z,30.63
2023-07-24T14:52:35.156Z,29.95
2023-07-24T14:55:02.629Z,30.06
2023-07-24T14:57:30.036Z,30.07
2023-07-24T14:59:57.752Z,30.19
2023-07-24T15:02:25.476Z,29.90
2023-07-24T15:04:52.848Z,29.82
2023-07-24T15:07:20.610Z,29.89
2023-07-24T15:09:47.959Z,30.08
2023-07-24T15:12:15.480Z,30.23
2023-07-24T15:14:42.915Z,29.78
2023-07-24T15:17:10.327Z,29.52
2023-07-24T15:19:38.095Z,29.26
2023-07-24T15:22:05.653Z,29.20
2023-07-24T15:24:33.104Z,29.23
2023-07-24T15:27:00.952Z,29.50
2023-07-24T15:29:29.371Z,29.57
2023-07-24T15:31:57.327Z,29.19
2023-07-24T15:34:25.671Z,29.23
2023-07-24T15:36:53.458Z,30.76
2023-07-24T15:39:20.788Z,33.02
2023-07-24T15:41:48.180Z,31.92
2023-07-24T15:44:15.863Z,31.91
2023-07-24T15:46:44.936Z,31.73
2023-07-24T15:49:12.961Z,32.87
2023-07-24T15:51:41.466Z,32.32
2023-07-24T15:54:11.613Z,35.16
2023-07-24T15:56:40.324Z,37.15
2023-07-24T15:59:10.133Z,38.42
2023-07-24T16:01:37.857Z,38.42
2023-07-24T16:04:05.372Z,39.28
2023-07-24T16:06:33.218Z,39.94
2023-07-24T16:09:01.560Z,39.97
2023-07-24T16:11:29.881Z,39.87
2023-07-24T16:13:58.448Z,39.76
2023-07-24T16:16:26.556Z,39.73
2023-07-24T16:19:16.444Z,39.13
2023-07-24T16:21:46.377Z,36.54
2023-07-24T16:24:16.647Z,34.65
2023-07-24T16:26:46.185Z,32.71
2023-07-24T16:29:14.082Z,31.77
2023-07-24T16:31:41.590Z,30.92
2023-07-24T16:34:09.629Z,30.32
2023-07-24T16:36:37.664Z,29.76
2023-07-24T16:39:07.120Z,29.64
2023-07-24T16:41:35.374Z,29.42
2023-07-24T16:44:03.481Z,29.58
2023-07-24T16:46:31.442Z,29.89
2023-07-24T16:48:58.797Z,29.39
2023-07-24T16:51:26.673Z,29.69
2023-07-24T16:53:54.024Z,29.59
2023-07-24T16:56:21.316Z,29.69
2023-07-24T16:58:48.691Z,29.52
2023-07-24T17:01:16.497Z,29.38
2023-07-24T17:03:44.468Z,29.43
2023-07-24T17:06:11.884Z,29.49
2023-07-24T17:08:40.310Z,29.90
2023-07-24T17:11:07.737Z,29.50
2023-07-24T17:13:35.710Z,29.45
2023-07-24T17:16:03.582Z,29.70
2023-07-24T17:18:30.888Z,29.45
2023-07-24T17:20:59.743Z,29.53
2023-07-24T17:23:27.054Z,29.88
2023-07-24T17:25:54.783Z,29.77
2023-07-24T17:28:23.548Z,29.56
2023-07-24T17:30:51.963Z,29.51
2023-07-24T17:33:20.319Z,29.30
2023-07-24T17:35:47.811Z,29.23
2023-07-24T17:38:15.576Z,28.92
2023-07-24T17:40:43.383Z,29.08
2023-07-24T17:43:11.150Z,29.00
2023-07-24T17:45:38.985Z,29.15
2023-07-24T17:48:07.256Z,28.87
2023-07-24T17:50:35.810Z,28.99
2023-07-24T17:53:03.686Z,28.59
2023-07-24T17:55:31.703Z,28.42
2023-07-24T17:57:59.475Z,28.48
2023-07-24T18:00:28.195Z,28.32
2023-07-24T18:02:56.210Z,28.21
2023-07-24T18:05:23.702Z,27.86
2023-07-24T18:07:52.721Z,27.89
2023-07-24T18:10:21.411Z,27.79
2023-07-24T18:12:49.927Z,27.41
2023-07-24T18:15:17.518Z,27.21
2023-07-24T18:17:46.554Z,27.14
2023-07-24T18:20:14.934Z,27.06
2023-07-24T18:22:44.004Z,26.99
2023-07-24T18:25:11.560Z,27.24
2023-07-24T18:27:39.876Z,27.11
2023-07-24T18:30:08.239Z,27.10
2023-07-24T18:32:35.623Z,27.33
2023-07-24T18:35:03.498Z,27.21
2023-07-24T18:37:31.631Z,27.26
2023-07-24T18:39:59.247Z,27.02
2023-07-24T18:42:27.107Z,26.98
2023-07-24T18:44:54.493Z,27.02
2023-07-24T18:47:21.855Z,26.91
2023-07-24T18:49:49.131Z,26.88
2023-07-24T18:52:16.903Z,26.75
2023-07-24T18:54:45.102Z,26.75
2023-07-24T18:57:12.898Z,26.87
2023-07-24T18:59:40.983Z,26.67
2023-07-24T19:02:09.017Z,26.60
2023-07-24T19:04:36.816Z,26.62
2023-07-24T19:07:05.040Z,26.69
2023-07-24T19:09:32.577Z,26.39
2023-07-24T19:12:01.430Z,26.44
2023-07-24T19:14:29.177Z,26.34
2023-07-24T19:16:57.217Z,26.56
2023-07-24T19:19:25.127Z,26.48
2023-07-24T19:21:52.495Z,26.19
2023-07-24T19:24:19.883Z,26.34
2023-07-24T19:26:48.331Z,26.62
2023-07-24T19:29:15.737Z,26.65
2023-07-24T19:31:43.540Z,26.77
2023-07-24T19:34:11.965Z,26.47
2023-07-24T19:36:39.420Z,26.10
2023-07-24T19:39:07.365Z,25.98
2023-07-24T19:41:35.322Z,25.88
2023-07-24T19:44:03.102Z,25.87
2023-07-24T19:46:30.916Z,26.14
2023-07-24T19:49:00.512Z,25.79
2023-07-24T19:51:27.964Z,25.74
2023-07-24T19:53:56.227Z,25.55
2023-07-24T19:56:24.077Z,25.27
2023-07-24T19:58:52.288Z,25.47
2023-07-24T20:01:20.302Z,25.67
2023-07-24T20:03:48.296Z,25.80
2023-07-24T20:06:16.126Z,25.66
2023-07-24T20:08:43.474Z,25.54
2023-07-24T20:11:11.321Z,25.62
2023-07-24T20:13:39.257Z,25.79
2023-07-24T20:16:06.761Z,25.95
2023-07-24T20:18:34.248Z,25.75
2023-07-24T20:21:02.983Z,25.75
2023-07-24T20:23:31.008Z,25.95
2023-07-24T20:25:58.827Z,25.90
2023-07-24T20:28:27.293Z,25.97
2023-07-24T20:30:54.897Z,25.95
2023-07-24T20:33:22.291Z,26.33
2023-07-24T20:35:55.674Z,26.07
2023-07-24T20:38:33.380Z,26.02
2023-07-24T20:41:01.906Z,25.70
2023-07-24T20:43:30.647Z,25.74
2023-07-24T20:45:58.717Z,25.78
2023-07-24T20:48:27.513Z,25.90
2023-07-24T20:50:55.429Z,25.79
2023-07-24T20:53:22.739Z,25.36
2023-07-24T20:55:50.217Z,25.18
2023-07-24T20:58:17.609Z,25.02
2023-07-24T21:00:46.078Z,25.00
2023-07-24T21:03:13.485Z,24.87
2023-07-24T21:05:41.563Z,24.61
2023-07-24T21:08:10.230Z,24.53
2023-07-24T21:10:37.572Z,24.40
2023-07-24T21:13:04.917Z,24.55
2023-07-24T21:15:33.564Z,24.37
2023-07-24T21:18:01.973Z,24.66
2023-07-24T21:20:29.357Z,24.42
2023-07-24T21:22:56.744Z,24.35
2023-07-24T21:25:24.570Z,24.39
2023-07-24T21:27:52.428Z,24.16
2023-07-24T21:30:21.944Z,24.41
2023-07-24T21:32:49.635Z,24.71
2023-07-24T21:35:19.480Z,24.57
2023-07-24T21:37:47.207Z,24.41
2023-07-24T21:40:14.608Z,24.58
2023-07-24T21:42:42.428Z,24.52
2023-07-24T21:45:10.623Z,24.46
2023-07-24T21:47:38.000Z,24.50
2023-07-24T21:50:06.181Z,24.70
2023-07-24T21:52:33.524Z,24.76
2023-07-24T21:55:01.279Z,24.72
2023-07-24T21:57:28.890Z,24.29
2023-07-24T21:59:56.253Z,24.24
2023-07-24T22:02:23.640Z,23.71
2023-07-24T22:04:51.581Z,23.76
2023-07-24T22:07:18.887Z,23.87
2023-07-24T22:09:46.491Z,23.60
2023-07-24T22:12:14.423Z,23.88
2023-07-24T22:14:41.802Z,24.13
2023-07-24T22:17:09.634Z,24.14
2023-07-24T22:19:37.103Z,24.46
2023-07-24T22:22:04.631Z,24.74
2023-07-24T22:24:33.878Z,24.72
2023-07-24T22:27:01.550Z,24.66
2023-07-24T22:29:29.303Z,24.67
2023-07-24T22:31:57.100Z,24.62
2023-07-24T22:34:25.160Z,24.10
2023-07-24T22:36:52.450Z,24.06
2023-07-24T22:39:20.219Z,23.89
2023-07-24T22:41:47.610Z,24.05
2023-07-24T22:44:15.080Z,24.42
2023-07-24T22:46:42.438Z,24.52
2023-07-24T22:49:10.295Z,24.20
2023-07-24T22:51:37.584Z,24.06
2023-07-24T22:54:05.341Z,24.22
2023-07-24T22:56:32.759Z,24.31
2023-07-24T22:59:03.145Z,24.11
2023-07-24T23:01:32.651Z,24.12
2023-07-24T23:04:00.426Z,24.27
2023-07-24T23:06:27.826Z,24.39
2023-07-24T23:08:56.064Z,24.22
2023-07-24T23:11:23.456Z,24.13
2023-07-24T23:13:51.542Z,24.34
2023-07-24T23:16:18.950Z,24.27
2023-07-24T23:18:46.258Z,24.22
2023-07-24T23:21:13.623Z,24.55
2023-07-24T23:23:40.979Z,24.41
2023-07-24T23:26:08.376Z,24.44
2023-07-24T23:28:36.215Z,24.44
2023-07-24T23:31:04.954Z,24.15
2023-07-24T23:33:36.616Z,23.95
2023-07-24T23:36:08.137Z,23.88
2023-07-24T23:38:37.584Z,24.39
2023-07-24T23:41:06.357Z,24.29
2023-07-24T23:43:35.152Z,24.18
2023-07-24T23:46:10.811Z,23.98
2023-07-24T23:48:38.518Z,24.02
2023-07-24T23:51:06.440Z,24.24
2023-07-24T23:53:33.820Z,24.02
2023-07-24T23:56:01.108Z,23.85
2023-07-24T23:58:28.500Z,23.94
